Terminal Aerodrome Forecast
Issued by NWS Wilmington, OH

Current Version | Previous Version | Graphics & Text | Print | Product List | Glossary On
Versions: 1 2 3 4 5 6 7 8 9 10 11 12 13 14 15 16
263
FTUS41 KILN 041731
TAFDAY
TAF
KDAY 041731Z 0418/0518 28011KT P6SM VCSH OVC022
     FM042300 28007KT P6SM SCT025
     FM050200 26006KT P6SM SKC
     FM051300 23008KT P6SM BKN150=

USA.gov is the U.S. government's official web portal to all federal, state and local government web resources and services.